Time;durP1;ratioP1;P1;durP2;ratioP2;P2;SDS_P1;SDS_P2;PMS_P1;PMS_P2;Temp;Humidity;BMP_temperature;BMP_pressure;BME280_temperature;BME280_humidity;BME280_pressure;Samples;Min_cycle;Max_cycle;Signal;HPM_P1;HPM_P2
2023/03/19 00:01:24;;;;;;;7.55;6.18;;;;;;;8.89;67.03;97898.19;5011448;28;20031;-72
2023/03/19 00:03:50;;;;;;;11.00;7.07;;;;;;;8.76;67.38;97900.34;5011509;28;20026;-72
2023/03/19 00:06:15;;;;;;;10.07;6.35;;;;;;;8.70;67.65;97901.31;5011600;28;20042;-72
2023/03/19 00:08:41;;;;;;;7.70;6.53;;;;;;;8.62;67.90;97896.31;4995227;28;20034;-72
2023/03/19 00:11:11;;;;;;;10.10;6.07;;;;;;;8.51;68.05;97911.44;4994904;28;20030;-72
2023/03/19 00:13:36;;;;;;;10.23;6.88;;;;;;;8.42;69.26;97903.97;4995128;28;20037;-72
2023/03/19 00:16:02;;;;;;;11.07;6.20;;;;;;;8.64;67.63;97904.94;5011369;28;20081;-72
2023/03/19 00:18:27;;;;;;;8.40;6.85;;;;;;;8.33;68.71;97904.34;5011382;28;20050;-71
2023/03/19 00:20:53;;;;;;;12.23;7.43;;;;;;;8.47;69.21;97907.56;5012553;28;20048;-72
2023/03/19 00:23:18;;;;;;;10.43;7.13;;;;;;;8.39;69.06;97904.44;4994873;28;20053;-72
2023/03/19 00:25:43;;;;;;;8.38;6.68;;;;;;;8.24;69.24;97903.06;5012230;28;20105;-72
2023/03/19 00:28:09;;;;;;;8.05;6.95;;;;;;;8.38;68.92;97902.84;5012264;28;20042;-72
2023/03/19 00:30:35;;;;;;;10.27;7.10;;;;;;;8.34;68.61;97903.31;5010868;28;20144;-71
2023/03/19 00:33:01;;;;;;;8.15;6.72;;;;;;;8.17;69.08;97905.03;4994362;28;20038;-71
2023/03/19 00:35:27;;;;;;;8.65;7.57;;;;;;;8.25;68.43;97895.81;4994473;28;20071;-70
2023/03/19 00:37:52;;;;;;;11.52;7.53;;;;;;;8.20;69.45;97906.44;5011010;28;20042;-70
2023/03/19 00:40:18;;;;;;;10.00;7.35;;;;;;;8.15;68.76;97906.34;5010795;28;20105;-71
2023/03/19 00:42:43;;;;;;;10.23;7.53;;;;;;;8.10;69.71;97904.34;5010751;28;20037;-70
2023/03/19 00:45:10;;;;;;;9.40;7.60;;;;;;;7.70;70.12;97898.13;5010609;28;20026;-71
2023/03/19 00:47:35;;;;;;;10.35;8.27;;;;;;;7.89;69.58;97904.97;5010935;28;20465;-70
2023/03/19 00:50:03;;;;;;;10.13;7.78;;;;;;;7.89;69.78;97907.66;5011603;28;20101;-70
2023/03/19 00:52:28;;;;;;;8.68;7.65;;;;;;;7.91;69.70;97905.53;4994387;28;20037;-71
2023/03/19 00:54:53;;;;;;;10.32;8.18;;;;;;;7.90;69.12;97905.78;4994284;28;20425;-71
2023/03/19 00:57:19;;;;;;;10.75;9.43;;;;;;;7.78;70.74;97900.44;4994431;28;20564;-71
2023/03/19 01:02:46;;;;;;;11.25;10.15;;;;;;;7.72;70.58;97905.91;4958076;28;20070;-76
2023/03/19 01:05:12;;;;;;;12.70;9.57;;;;;;;7.75;70.99;97903.56;4965153;28;20443;-74
2023/03/19 01:07:38;;;;;;;10.95;9.55;;;;;;;7.93;70.71;97908.84;4971594;28;20028;-74
2023/03/19 01:10:04;;;;;;;10.55;9.55;;;;;;;7.72;70.40;97901.38;4938319;28;20038;-74
2023/03/19 01:12:29;;;;;;;12.73;11.02;;;;;;;7.71;70.03;97910.44;4955752;28;20069;-74
2023/03/19 01:14:55;;;;;;;10.82;9.82;;;;;;;7.63;70.45;97908.94;4977052;28;20037;-74
2023/03/19 01:17:20;;;;;;;12.88;11.57;;;;;;;7.59;70.89;97904.28;5007450;28;20033;-74
2023/03/19 01:19:46;;;;;;;13.18;11.80;;;;;;;7.61;71.07;97900.31;4958816;28;20033;-74
2023/03/19 01:22:13;;;;;;;12.43;11.25;;;;;;;7.60;71.16;97911.28;4967608;28;20628;-76
2023/03/19 01:24:41;;;;;;;14.00;11.50;;;;;;;7.70;70.46;97908.00;4963455;28;20077;-76
2023/03/19 01:27:07;;;;;;;13.88;12.45;;;;;;;7.72;70.38;97905.91;4965373;28;20026;-76
2023/03/19 01:29:34;;;;;;;14.18;12.88;;;;;;;7.60;70.79;97903.22;4979180;28;20032;-76
2023/03/19 01:32:08;;;;;;;13.60;11.93;;;;;;;7.46;71.02;97899.16;4978677;28;20121;-76
2023/03/19 01:34:52;;;;;;;13.98;12.57;;;;;;;7.50;71.32;97913.69;4959679;28;20434;-76
2023/03/19 01:37:19;;;;;;;14.90;13.60;;;;;;;7.37;72.06;97909.41;4958835;28;20035;-75
2023/03/19 01:39:45;;;;;;;16.73;15.18;;;;;;;7.29;72.42;97909.72;4976520;28;20018;-75
2023/03/19 01:42:12;;;;;;;16.33;14.88;;;;;;;7.46;71.85;97912.53;4979078;28;20035;-77
2023/03/19 01:44:58;;;;;;;15.98;14.38;;;;;;;7.48;71.04;97910.44;4955632;28;20039;-77
2023/03/19 01:47:37;;;;;;;14.25;13.10;;;;;;;7.57;71.60;97911.72;4963887;28;20386;-77
2023/03/19 01:50:43;;;;;;;15.98;14.57;;;;;;;7.34;71.70;97909.03;4965324;28;20391;-77
2023/03/19 01:53:33;;;;;;;15.40;14.10;;;;;;;7.23;72.96;97907.16;4959836;28;20050;-76
2023/03/19 01:56:10;;;;;;;18.27;16.40;;;;;;;7.25;72.26;97921.13;4967945;28;20038;-76
2023/03/19 01:58:55;;;;;;;19.30;17.60;;;;;;;7.33;72.77;97912.75;4959403;28;20097;-76
2023/03/19 02:02:00;;;;;;;19.55;17.80;;;;;;;7.40;72.20;97918.81;4975504;28;20038;-76
2023/03/19 02:04:27;;;;;;;20.80;19.10;;;;;;;7.28;72.26;97921.47;4972405;28;20485;-77
2023/03/19 02:06:57;;;;;;;21.65;19.98;;;;;;;7.31;72.01;97920.19;4968166;28;20312;-76
2023/03/19 02:09:24;;;;;;;22.33;20.45;;;;;;;7.22;72.16;97927.75;4969632;28;20034;-76
2023/03/19 02:11:50;;;;;;;19.42;17.92;;;;;;;7.36;71.79;97923.00;4982684;28;20064;-76
2023/03/19 02:14:15;;;;;;;20.73;19.05;;;;;;;7.38;71.80;97918.22;4985111;28;20066;-76
2023/03/19 02:16:41;;;;;;;20.85;19.00;;;;;;;7.21;72.04;97909.25;4988403;28;20764;-77
2023/03/19 02:19:10;;;;;;;22.40;20.70;;;;;;;7.09;72.99;97916.44;4971527;28;20031;-77
2023/03/19 02:21:36;;;;;;;23.05;21.35;;;;;;;6.96;73.55;97918.25;4987601;28;20466;-75
2023/03/19 02:24:12;;;;;;;24.00;22.00;;;;;;;6.94;72.89;97920.34;4971245;28;20084;-75
2023/03/19 02:26:56;;;;;;;23.48;21.80;;;;;;;6.85;73.33;97932.41;4987177;28;20036;-75
2023/03/19 02:29:22;;;;;;;24.30;22.45;;;;;;;6.81;74.13;97928.53;4980475;28;20038;-76
2023/03/19 02:31:47;;;;;;;26.35;24.42;;;;;;;6.98;73.52;97924.19;4967521;28;20035;-75
2023/03/19 02:34:12;;;;;;;27.90;25.83;;;;;;;6.97;73.98;97925.25;4978598;28;20038;-75
2023/03/19 02:36:41;;;;;;;27.27;25.33;;;;;;;7.00;74.09;97923.97;4983737;28;20117;-75
2023/03/19 02:39:20;;;;;;;28.20;26.02;;;;;;;7.18;72.65;97920.41;4970882;28;20406;-75
2023/03/19 02:41:46;;;;;;;27.40;25.17;;;;;;;7.29;73.11;97922.28;4970252;28;20398;-74
2023/03/19 02:44:11;;;;;;;25.55;23.65;;;;;;;7.06;73.14;97922.22;4958529;28;20037;-75
2023/03/19 02:46:36;;;;;;;26.33;24.35;;;;;;;7.03;73.10;97928.03;4970513;28;20041;-75
2023/03/19 02:49:02;;;;;;;26.00;24.08;;;;;;;6.98;72.66;97920.69;4964390;28;20024;-75
2023/03/19 02:51:28;;;;;;;27.33;25.42;;;;;;;6.96;73.13;97928.13;4965263;28;20667;-74
2023/03/19 02:53:54;;;;;;;26.73;24.63;;;;;;;6.95;73.23;97930.00;4986932;28;20038;-76
2023/03/19 02:56:19;;;;;;;28.35;26.45;;;;;;;6.98;73.07;97929.53;4969450;28;20050;-76
2023/03/19 02:58:45;;;;;;;28.42;26.42;;;;;;;6.72;74.46;97931.78;4964903;28;20033;-77
2023/03/19 03:01:11;;;;;;;28.40;26.33;;;;;;;6.82;73.57;97934.72;4965337;28;20045;-74
2023/03/19 03:03:37;;;;;;;29.58;27.48;;;;;;;7.02;73.21;97932.59;4970325;28;20117;-75
2023/03/19 03:06:02;;;;;;;31.75;29.52;;;;;;;6.93;74.04;97925.94;4973679;28;20409;-75
2023/03/19 03:08:27;;;;;;;30.50;28.10;;;;;;;7.02;73.43;97937.13;4970538;28;20030;-75
2023/03/19 03:10:53;;;;;;;28.80;26.55;;;;;;;7.05;73.49;97931.31;4974122;28;20034;-78
2023/03/19 03:13:18;;;;;;;27.60;25.70;;;;;;;6.98;73.75;97931.41;4970734;28;20031;-75
2023/03/19 03:15:43;;;;;;;27.73;25.63;;;;;;;6.92;73.76;97922.44;4969045;28;20053;-75
2023/03/19 03:18:09;;;;;;;29.50;27.00;;;;;;;6.81;73.48;97931.22;4964051;28;20061;-74
2023/03/19 03:20:35;;;;;;;31.27;29.02;;;;;;;6.70;74.65;97940.03;4981605;28;20077;-74
2023/03/19 03:23:00;;;;;;;34.65;32.15;;;;;;;6.78;74.32;97941.56;4986088;28;20026;-74
2023/03/19 03:25:26;;;;;;;31.80;29.52;;;;;;;6.71;74.71;97952.38;4968434;28;20095;-75
2023/03/19 03:27:52;;;;;;;34.33;32.03;;;;;;;6.61;74.83;97952.06;4989183;28;20113;-75
2023/03/19 03:30:17;;;;;;;35.42;32.95;;;;;;;6.65;74.97;97958.59;4974374;28;20042;-75
2023/03/19 03:32:42;;;;;;;32.72;30.52;;;;;;;6.68;74.51;97958.16;4970264;28;20027;-74
2023/03/19 03:35:08;;;;;;;33.53;31.23;;;;;;;6.65;74.39;97953.25;4974325;28;20487;-75
2023/03/19 03:37:35;;;;;;;35.65;33.13;;;;;;;6.30;75.71;97972.84;4978855;28;20105;-75
2023/03/19 03:40:05;;;;;;;44.58;41.83;;;;;;;6.14;77.26;97976.91;4981502;28;20042;-75
2023/03/19 03:42:31;;;;;;;45.63;42.70;;;;;;;6.26;76.53;97983.97;4975789;28;20034;-75
2023/03/19 03:44:57;;;;;;;53.55;50.15;;;;;;;6.26;76.17;97980.47;4964436;28;20114;-75
2023/03/19 03:47:22;;;;;;;49.00;45.90;;;;;;;6.30;75.95;97980.84;4976114;28;20069;-75
2023/03/19 03:49:48;;;;;;;49.65;46.63;;;;;;;6.41;75.71;97980.09;4965575;28;20077;-75
2023/03/19 03:52:14;;;;;;;47.25;44.05;;;;;;;6.42;74.92;97969.19;4977931;28;20038;-75
2023/03/19 03:54:39;;;;;;;43.15;40.45;;;;;;;6.42;75.66;97979.09;4965329;28;20121;-75
2023/03/19 03:57:05;;;;;;;40.38;37.88;;;;;;;6.41;75.75;97972.91;5002061;28;20038;-75
2023/03/19 03:59:30;;;;;;;42.42;39.92;;;;;;;6.35;75.60;97979.13;4956728;28;20033;-75
2023/03/19 04:01:56;;;;;;;41.35;38.80;;;;;;;6.30;75.50;97983.53;4985422;28;20038;-75
2023/03/19 04:04:21;;;;;;;42.33;39.72;;;;;;;6.35;75.77;97979.13;4983332;28;20095;-74
2023/03/19 04:06:47;;;;;;;43.30;40.63;;;;;;;6.32;75.15;97984.94;4962815;28;20433;-74
2023/03/19 04:09:23;;;;;;;44.22;41.58;;;;;;;6.31;76.12;97983.31;4965883;28;20073;-74
2023/03/19 04:11:48;;;;;;;45.35;42.78;;;;;;;6.32;75.46;97979.59;4962322;28;20050;-74
2023/03/19 04:14:14;;;;;;;42.85;40.25;;;;;;;6.33;76.24;97978.53;4979225;28;20042;-74
2023/03/19 04:16:40;;;;;;;44.63;41.80;;;;;;;6.30;76.01;97979.00;4985454;28;20037;-74
2023/03/19 04:19:06;;;;;;;45.97;43.25;;;;;;;6.25;76.08;97968.94;4956399;28;20053;-74
2023/03/19 04:21:32;;;;;;;44.13;41.58;;;;;;;6.21;76.17;97985.66;4985387;28;20057;-75
2023/03/19 04:23:57;;;;;;;43.90;41.05;;;;;;;6.21;76.26;97985.66;4967864;28;20482;-76
2023/03/19 04:26:23;;;;;;;48.35;45.35;;;;;;;6.14;77.18;97998.28;4986016;28;20035;-75
2023/03/19 04:28:48;;;;;;;45.05;42.42;;;;;;;6.15;76.46;97995.41;4984222;28;20088;-75
2023/03/19 04:31:14;;;;;;;48.33;45.42;;;;;;;6.32;75.71;97995.66;4962277;28;20452;-75
2023/03/19 04:33:43;;;;;;;47.03;44.13;;;;;;;6.28;76.33;97989.91;4963437;28;20700;-75
2023/03/19 04:36:09;;;;;;;47.95;45.15;;;;;;;6.32;76.11;97992.97;4969143;28;20125;-75
2023/03/19 04:38:35;;;;;;;49.40;46.70;;;;;;;6.26;76.09;97991.16;4968262;28;20490;-74
2023/03/19 04:41:01;;;;;;;48.05;45.35;;;;;;;6.34;76.01;97993.56;4962016;28;20037;-74
2023/03/19 04:43:27;;;;;;;48.60;45.88;;;;;;;6.41;75.83;97988.97;4963087;28;20419;-75
2023/03/19 04:45:53;;;;;;;45.72;43.15;;;;;;;6.37;76.33;97985.06;4984922;28;20579;-75
2023/03/19 04:48:20;;;;;;;46.47;43.83;;;;;;;6.38;75.95;97983.22;4956294;28;20030;-75
2023/03/19 04:50:46;;;;;;;49.83;46.92;;;;;;;6.49;75.96;97979.81;4970686;28;20514;-75
2023/03/19 04:53:12;;;;;;;53.15;50.05;;;;;;;6.45;76.21;97979.44;4987379;28;20034;-75
2023/03/19 04:55:38;;;;;;;52.67;49.42;;;;;;;6.45;77.33;97989.31;4970764;28;20742;-74
2023/03/19 04:58:12;;;;;;;48.95;45.80;;;;;;;6.61;75.98;97994.88;4987480;28;20080;-74
2023/03/19 05:00:40;;;;;;;46.78;44.08;;;;;;;6.74;75.10;97988.56;4963076;28;20034;-73
2023/03/19 05:03:06;;;;;;;47.33;44.28;;;;;;;6.84;74.94;97995.00;4961559;28;20441;-74
2023/03/19 05:05:32;;;;;;;44.50;41.95;;;;;;;6.89;74.83;98002.34;4971737;28;20508;-75
2023/03/19 05:07:59;;;;;;;41.13;38.70;;;;;;;6.95;75.19;98004.94;5000942;28;20121;-75
2023/03/19 05:10:25;;;;;;;42.35;39.75;;;;;;;6.78;75.41;98001.28;4955496;28;20101;-75
2023/03/19 05:12:50;;;;;;;44.95;42.25;;;;;;;6.66;76.07;98008.41;4968281;28;20482;-75
2023/03/19 05:15:16;;;;;;;49.03;46.15;;;;;;;6.61;77.17;98005.59;4963314;28;20489;-76
2023/03/19 05:17:51;;;;;;;49.70;46.60;;;;;;;6.59;76.47;98014.88;4963066;28;20541;-77
2023/03/19 05:20:20;;;;;;;52.10;49.10;;;;;;;6.53;76.54;98013.94;4982138;28;20053;-76
2023/03/19 05:22:55;;;;;;;52.22;49.22;;;;;;;6.50;76.90;98017.03;4975695;28;20486;-77
2023/03/19 05:25:29;;;;;;;57.00;53.70;;;;;;;6.52;76.55;98020.31;4964951;28;20399;-76
2023/03/19 05:27:55;;;;;;;56.88;53.42;;;;;;;6.48;76.74;98021.81;4973746;28;20034;-76
2023/03/19 05:30:22;;;;;;;57.40;54.15;;;;;;;6.61;76.05;98016.28;4963439;28;20030;-76
2023/03/19 05:33:00;;;;;;;55.22;52.13;;;;;;;6.61;76.07;98018.97;4967939;28;20050;-77
2023/03/19 05:35:32;;;;;;;53.60;50.53;;;;;;;6.61;76.73;98021.63;4964484;28;20034;-77
2023/03/19 05:38:00;;;;;;;51.63;48.55;;;;;;;6.65;76.72;98025.50;4969387;28;20148;-77
2023/03/19 05:40:25;;;;;;;50.78;47.92;;;;;;;6.53;76.93;98024.63;4966334;28;20061;-76
2023/03/19 05:42:52;;;;;;;59.47;55.88;;;;;;;6.48;77.43;98032.50;4970454;28;20042;-75
2023/03/19 05:45:21;;;;;;;58.70;54.80;;;;;;;6.48;77.10;98026.31;4974105;28;20037;-79
2023/03/19 05:47:50;;;;;;;56.17;52.83;;;;;;;6.25;77.37;98037.69;4966221;28;20043;-76
2023/03/19 05:50:18;;;;;;;180.27;169.32;;;;;;;5.95;79.84;98042.06;4972351;28;20029;-76
2023/03/19 05:53:02;;;;;;;76.47;72.07;;;;;;;6.41;78.29;98036.28;5004060;28;20497;-76
2023/03/19 05:55:28;;;;;;;64.40;60.55;;;;;;;6.25;78.16;98045.69;4979539;28;20126;-77
2023/03/19 05:58:01;;;;;;;65.13;61.03;;;;;;;6.10;79.76;98055.91;4965670;28;20035;-75
2023/03/19 06:00:28;;;;;;;61.92;58.25;;;;;;;6.16;78.37;98055.03;4964429;28;20367;-76
2023/03/19 06:02:53;;;;;;;53.08;49.78;;;;;;;6.32;77.72;98065.19;4959476;28;20045;-75
2023/03/19 06:05:36;;;;;;;61.38;57.95;;;;;;;6.24;78.59;98073.47;4962335;28;20487;-75
2023/03/19 06:08:10;;;;;;;62.78;59.05;;;;;;;6.38;78.04;98079.50;4968043;28;20039;-77
2023/03/19 06:10:51;;;;;;;60.00;56.28;;;;;;;6.41;78.54;98081.75;4965397;28;20034;-77
2023/03/19 06:13:17;;;;;;;61.45;58.10;;;;;;;6.58;77.71;98094.31;4992598;28;20046;-77
2023/03/19 06:15:58;;;;;;;70.40;66.30;;;;;;;6.57;79.36;98099.91;4992864;28;20504;-77
2023/03/19 06:18:30;;;;;;;67.72;63.55;;;;;;;6.81;78.63;98097.16;4969401;28;20042;-77
2023/03/19 06:20:58;;;;;;;68.40;64.30;;;;;;;6.63;78.71;98105.19;4966030;28;20037;-75
2023/03/19 06:23:23;;;;;;;63.03;59.28;;;;;;;6.90;78.70;98105.72;4969466;28;20126;-75
2023/03/19 06:25:49;;;;;;;62.58;59.13;;;;;;;6.98;78.69;98113.44;4958515;28;20190;-75
2023/03/19 06:28:15;;;;;;;67.50;63.55;;;;;;;6.88;78.86;98119.31;4958017;28;20023;-75
2023/03/19 06:30:43;;;;;;;65.32;61.45;;;;;;;7.14;78.49;98117.41;4974355;28;20031;-75
2023/03/19 06:33:32;;;;;;;63.17;59.08;;;;;;;7.04;78.44;98127.81;4951415;28;20093;-76
2023/03/19 06:35:58;;;;;;;65.75;61.70;;;;;;;7.20;78.22;98121.84;4960356;28;20184;-75
2023/03/19 06:38:24;;;;;;;66.38;62.28;;;;;;;7.35;77.90;98119.59;4985838;28;20062;-75
2023/03/19 06:40:49;;;;;;;66.18;62.28;;;;;;;7.28;79.14;98118.88;4973022;28;20062;-76
2023/03/19 06:43:16;;;;;;;67.18;63.33;;;;;;;7.41;78.17;98119.50;4986190;28;20065;-76
2023/03/19 06:45:41;;;;;;;69.90;65.78;;;;;;;7.61;78.45;98129.94;4964894;28;20109;-77
2023/03/19 06:48:07;;;;;;;67.22;63.22;;;;;;;7.34;80.17;98128.66;4982090;28;20565;-76
2023/03/19 06:50:32;;;;;;;67.07;63.35;;;;;;;7.36;79.46;98137.31;4971035;28;20047;-75
2023/03/19 06:52:57;;;;;;;70.88;66.85;;;;;;;7.46;79.86;98126.88;4985344;28;20037;-77
2023/03/19 06:55:23;;;;;;;70.85;66.40;;;;;;;7.63;79.37;98127.88;4981876;28;20042;-76
2023/03/19 06:57:49;;;;;;;70.65;66.72;;;;;;;7.86;78.85;98117.25;4982569;28;20078;-75
2023/03/19 07:00:15;;;;;;;65.32;61.35;;;;;;;8.08;77.52;98125.56;4970684;28;20045;-78
2023/03/19 07:02:41;;;;;;;62.95;59.22;;;;;;;8.25;77.03;98130.03;5055569;23;20127;-74
2023/03/19 07:05:07;;;;;;;65.55;61.95;;;;;;;8.30;77.95;98124.84;5032089;28;20564;-74
2023/03/19 07:07:32;;;;;;;61.67;58.13;;;;;;;8.41;78.00;98125.88;5027067;28;20059;-74
2023/03/19 07:09:58;;;;;;;60.75;57.30;;;;;;;8.51;77.03;98136.03;5052089;28;20262;-74
2023/03/19 07:12:26;;;;;;;67.35;63.35;;;;;;;8.45;79.85;98139.66;5036754;28;20044;-74
2023/03/19 07:14:55;;;;;;;65.85;62.25;;;;;;;8.50;77.70;98155.84;5013926;28;20083;-74
2023/03/19 07:17:22;;;;;;;65.43;61.83;;;;;;;8.31;79.38;98147.91;5038946;28;20025;-74
2023/03/19 07:19:47;;;;;;;68.22;64.13;;;;;;;8.15;79.66;98159.28;5033218;28;20037;-74
2023/03/19 07:22:13;;;;;;;70.13;65.90;;;;;;;8.46;80.27;98154.69;5032175;28;20032;-74
2023/03/19 07:24:38;;;;;;;67.93;63.90;;;;;;;8.54;78.89;98162.44;5033285;28;20041;-74
2023/03/19 07:27:04;;;;;;;68.78;64.78;;;;;;;8.60;77.83;98158.78;5032016;28;20029;-74
2023/03/19 07:29:30;;;;;;;66.03;62.15;;;;;;;8.51;78.77;98168.25;5030869;28;20041;-73
2023/03/19 07:31:55;;;;;;;63.75;60.35;;;;;;;8.40;78.25;98155.63;5013417;28;20026;-74
2023/03/19 07:34:21;;;;;;;66.15;62.42;;;;;;;8.58;78.26;98163.59;5036331;28;20031;-74
2023/03/19 07:36:47;;;;;;;69.20;65.40;;;;;;;8.49;79.61;98160.44;5015185;28;20017;-74
2023/03/19 07:39:13;;;;;;;71.68;67.78;;;;;;;8.41;79.19;98158.06;5011853;28;20049;-74
2023/03/19 07:41:38;;;;;;;65.43;61.72;;;;;;;8.51;78.79;98163.69;5030052;28;20029;-74
2023/03/19 07:44:03;;;;;;;66.47;62.55;;;;;;;8.66;78.89;98169.41;5031357;28;20049;-74
2023/03/19 07:46:29;;;;;;;72.25;67.90;;;;;;;8.51;80.44;98176.28;5031546;28;20037;-74
2023/03/19 07:48:54;;;;;;;74.95;70.50;;;;;;;8.26;81.73;98177.28;5031535;28;20080;-74
2023/03/19 07:51:20;;;;;;;72.65;68.65;;;;;;;8.53;80.15;98174.19;5014881;28;20485;-74
2023/03/19 07:53:45;;;;;;;73.63;69.43;;;;;;;8.67;80.25;98184.47;5032317;28;20095;-74
2023/03/19 07:56:11;;;;;;;73.80;69.50;;;;;;;8.60;81.05;98188.31;5030448;28;20079;-74
2023/03/19 07:58:37;;;;;;;75.00;70.85;;;;;;;8.63;81.81;98179.81;5014085;28;20029;-74
2023/03/19 08:01:02;;;;;;;104.07;95.90;;;;;;;8.53;82.91;98187.63;4998186;28;20515;-74
2023/03/19 08:03:28;;;;;;;100.85;93.38;;;;;;;8.67;80.86;98199.78;5031557;28;20033;-74
2023/03/19 08:05:53;;;;;;;125.38;115.03;;;;;;;8.64;82.58;98201.03;5031396;28;20104;-74
2023/03/19 08:08:19;;;;;;;173.32;155.10;;;;;;;8.43;83.89;98198.09;5014966;28;20473;-75
2023/03/19 08:10:44;;;;;;;103.10;95.15;;;;;;;8.42;84.08;98197.28;5032419;28;20060;-75
2023/03/19 08:13:10;;;;;;;232.25;194.88;;;;;;;8.42;84.52;98212.56;5032135;28;20033;-75
2023/03/19 08:15:36;;;;;;;378.23;286.20;;;;;;;8.57;82.63;98211.06;5042061;28;20480;-75
2023/03/19 08:18:03;;;;;;;278.27;219.13;;;;;;;8.60;83.86;98223.22;5034733;28;20041;-75
2023/03/19 08:20:29;;;;;;;85.43;79.30;;;;;;;8.35;85.10;98224.19;5031087;28;20032;-75
2023/03/19 08:22:56;;;;;;;76.47;71.60;;;;;;;8.35;85.89;98224.19;5030909;28;20037;-75
2023/03/19 08:25:22;;;;;;;69.47;65.50;;;;;;;8.24;84.20;98224.13;5014722;28;20033;-75
2023/03/19 08:27:48;;;;;;;74.50;70.25;;;;;;;8.28;85.57;98234.22;5030756;28;20034;-75
2023/03/19 08:30:13;;;;;;;72.93;68.60;;;;;;;8.35;85.44;98228.78;5025706;28;20083;-75
2023/03/19 08:32:39;;;;;;;72.88;68.78;;;;;;;8.29;86.10;98241.22;5032491;28;20037;-75
2023/03/19 08:35:05;;;;;;;69.75;65.90;;;;;;;8.30;84.61;98232.16;5014300;28;20071;-75
2023/03/19 08:37:31;;;;;;;67.90;63.90;;;;;;;8.41;84.92;98237.75;5044249;28;20087;-75
2023/03/19 08:39:56;;;;;;;69.55;65.75;;;;;;;8.46;84.95;98240.56;5031928;28;20036;-75
2023/03/19 08:42:21;;;;;;;71.10;66.80;;;;;;;8.25;85.16;98234.66;5031920;28;20586;-75
2023/03/19 08:44:47;;;;;;;70.53;66.45;;;;;;;8.48;84.99;98233.94;5013878;28;20473;-74
2023/03/19 08:47:13;;;;;;;70.18;66.13;;;;;;;8.34;85.82;98245.91;5014210;28;20037;-75
2023/03/19 08:49:38;;;;;;;65.55;61.67;;;;;;;8.51;85.05;98246.06;5014021;28;20481;-75
2023/03/19 08:52:04;;;;;;;66.78;62.58;;;;;;;8.49;86.07;98245.50;5034646;28;20488;-75
2023/03/19 08:54:30;;;;;;;66.68;62.83;;;;;;;8.39;86.88;98251.41;5027087;28;20045;-74
2023/03/19 08:56:56;;;;;;;67.78;63.90;;;;;;;8.47;85.10;98239.53;5029620;28;20186;-74
2023/03/19 08:59:21;;;;;;;65.93;62.08;;;;;;;8.45;85.50;98250.47;5014105;28;20040;-74
2023/03/19 09:01:51;;;;;;;64.43;60.83;;;;;;;8.56;85.29;98251.56;5030154;28;20037;-72
2023/03/19 09:04:17;;;;;;;64.32;60.38;;;;;;;8.43;86.04;98257.94;5031473;28;20377;-74
2023/03/19 09:06:44;;;;;;;65.75;61.92;;;;;;;8.56;85.67;98251.56;5013786;28;20025;-74
2023/03/19 09:09:09;;;;;;;61.38;57.88;;;;;;;8.53;85.80;98252.03;5030289;28;20052;-74
2023/03/19 09:11:35;;;;;;;64.50;60.83;;;;;;;8.54;87.91;98264.41;5010537;28;20500;-74
2023/03/19 09:14:00;;;;;;;62.72;59.13;;;;;;;8.61;86.62;98260.56;5033068;28;20080;-75
2023/03/19 09:16:26;;;;;;;62.70;59.15;;;;;;;8.58;87.45;98271.78;5033046;28;20029;-74
2023/03/19 09:18:51;;;;;;;62.95;59.22;;;;;;;8.78;86.30;98261.53;5030265;28;20479;-74
2023/03/19 09:21:17;;;;;;;59.08;55.42;;;;;;;8.75;86.50;98280.00;5030154;28;20037;-75
2023/03/19 09:23:42;;;;;;;61.88;57.88;;;;;;;8.64;87.77;98286.13;5013585;28;20413;-74
2023/03/19 09:26:07;;;;;;;59.15;55.55;;;;;;;8.78;87.37;98283.00;5030343;28;20021;-74
2023/03/19 09:28:34;;;;;;;60.63;56.78;;;;;;;8.58;88.34;98284.38;5031521;28;20037;-74
2023/03/19 09:31:05;;;;;;;59.85;55.97;;;;;;;8.68;88.24;98287.31;5016860;28;20025;-74
2023/03/19 09:33:31;;;;;;;60.40;56.88;;;;;;;8.87;86.71;98278.13;5023586;28;20554;-72
2023/03/19 09:35:56;;;;;;;59.47;56.05;;;;;;;8.86;86.18;98273.81;5030107;28;20021;-74
2023/03/19 09:38:22;;;;;;;61.50;58.00;;;;;;;8.83;86.94;98275.09;5030175;28;20064;-74
2023/03/19 09:41:12;;;;;;;59.92;56.22;;;;;;;8.84;87.46;98286.66;5030038;28;20044;-74
2023/03/19 09:43:43;;;;;;;59.67;56.17;;;;;;;8.98;86.87;98282.72;5029933;28;20034;-74
2023/03/19 09:46:21;;;;;;;57.95;54.55;;;;;;;9.11;85.99;98282.47;5030182;28;20053;-74
2023/03/19 09:48:51;;;;;;;57.00;53.63;;;;;;;9.14;86.35;98282.03;5031514;28;20045;-74
2023/03/19 09:51:22;;;;;;;59.60;56.03;;;;;;;9.13;86.96;98285.75;5029925;28;20034;-74
2023/03/19 09:54:01;;;;;;;56.83;53.35;;;;;;;9.26;85.53;98290.09;5029789;28;20045;-74
2023/03/19 09:56:27;;;;;;;58.55;55.22;;;;;;;9.31;85.93;98288.31;5031249;28;20175;-74
2023/03/19 09:58:52;;;;;;;61.15;57.65;;;;;;;9.31;85.26;98282.16;5029946;28;20033;-73
2023/03/19 10:01:26;;;;;;;57.05;53.75;;;;;;;9.21;86.23;98288.09;5009948;28;20033;-74
2023/03/19 10:04:05;;;;;;;58.03;54.72;;;;;;;9.27;86.59;98275.56;5013648;28;20045;-74
2023/03/19 10:06:34;;;;;;;62.53;59.08;;;;;;;9.32;85.31;98284.59;4999798;28;20040;-74
2023/03/19 10:09:12;;;;;;;62.78;59.15;;;;;;;9.19;87.43;98284.81;5023474;28;20032;-75
2023/03/19 10:11:49;;;;;;;57.45;53.72;;;;;;;9.23;87.20;98286.00;5030982;28;20548;-74
2023/03/19 10:14:17;;;;;;;62.75;58.92;;;;;;;9.25;87.17;98280.38;5029717;28;20404;-74
2023/03/19 10:16:44;;;;;;;57.75;54.17;;;;;;;9.25;86.92;98278.50;5029724;28;20040;-73
2023/03/19 10:19:13;;;;;;;55.75;52.38;;;;;;;9.40;86.00;98272.66;5029818;28;20044;-74
2023/03/19 10:21:43;;;;;;;55.10;52.17;;;;;;;9.55;84.84;98268.44;5017813;28;20091;-74
2023/03/19 10:24:26;;;;;;;55.90;52.85;;;;;;;9.71;85.01;98267.72;5017600;28;20041;-74
2023/03/19 10:26:58;;;;;;;55.38;52.33;;;;;;;9.63;85.10;98260.03;5036710;28;20051;-76
2023/03/19 10:29:24;;;;;;;54.60;51.50;;;;;;;9.61;86.71;98272.84;5035818;28;20044;-74
2023/03/19 10:32:18;;;;;;;50.83;47.83;;;;;;;9.57;87.54;98274.38;5016798;28;20115;-75
2023/03/19 10:34:49;;;;;;;57.08;53.85;;;;;;;9.41;87.90;98283.19;5021293;28;20106;-74
2023/03/19 10:37:27;;;;;;;55.30;51.78;;;;;;;9.57;88.69;98281.63;5033314;28;20037;-75
2023/03/19 10:40:00;;;;;;;51.20;48.25;;;;;;;9.27;90.06;98283.63;5033180;28;20499;-76
2023/03/19 10:42:26;;;;;;;52.85;49.60;;;;;;;9.43;89.60;98285.63;5033306;28;20060;-76
2023/03/19 10:45:07;;;;;;;54.85;51.30;;;;;;;9.56;88.73;98274.63;5034375;28;20075;-76
2023/03/19 10:47:37;;;;;;;56.15;52.65;;;;;;;9.94;87.13;98274.09;5033265;28;20064;-76
2023/03/19 10:50:03;;;;;;;56.17;52.80;;;;;;;10.20;85.46;98276.25;5033176;28;20044;-75
2023/03/19 10:52:38;;;;;;;59.25;55.95;;;;;;;10.21;85.90;98267.13;5016865;28;20021;-76
2023/03/19 10:55:12;;;;;;;57.80;54.78;;;;;;;10.53;83.99;98270.94;5033086;28;20045;-75
2023/03/19 10:57:41;;;;;;;58.38;55.00;;;;;;;10.36;84.62;98262.03;5033180;28;20041;-76
2023/03/19 11:00:23;;;;;;;56.53;53.55;;;;;;;10.56;84.42;98270.47;5033110;28;20021;-76
2023/03/19 11:02:52;;;;;;;58.28;55.38;;;;;;;10.68;83.52;98263.16;5032939;28;20100;-76
2023/03/19 11:05:22;;;;;;;59.88;56.75;;;;;;;10.79;83.12;98264.13;5016634;28;20025;-76
2023/03/19 11:07:50;;;;;;;58.08;55.17;;;;;;;10.96;83.02;98249.63;5034142;28;20033;-76
2023/03/19 11:10:16;;;;;;;59.40;56.40;;;;;;;11.06;82.29;98260.53;5016428;28;20060;-75
2023/03/19 11:12:47;;;;;;;61.88;58.63;;;;;;;11.36;81.69;98254.00;5016131;28;20041;-76
2023/03/19 11:15:26;;;;;;;61.53;58.33;;;;;;;11.60;80.61;98255.38;5016422;28;20053;-76
2023/03/19 11:17:58;;;;;;;58.30;55.38;;;;;;;11.83;80.17;98257.91;5032627;28;20167;-76
2023/03/19 11:20:33;;;;;;;59.78;56.60;;;;;;;11.82;82.30;98258.97;5032939;28;20041;-75
2023/03/19 11:23:02;;;;;;;58.55;55.58;;;;;;;12.20;80.31;98248.09;5032274;28;20029;-75
2023/03/19 11:25:30;;;;;;;60.45;57.45;;;;;;;12.24;80.32;98249.22;4999916;28;20112;-76
2023/03/19 11:28:21;;;;;;;57.90;54.72;;;;;;;12.46;79.50;98241.88;5032422;28;20064;-74
2023/03/19 11:31:18;;;;;;;56.00;53.40;;;;;;;12.63;78.59;98238.25;5015411;28;20038;-77
2023/03/19 11:33:50;;;;;;;54.00;51.50;;;;;;;12.57;78.00;98228.47;5030894;28;20041;-75